Etusivu
METAR-TAF:

METAR-TAF

Lentoasemat :

Ghardaïa, Algeria

Leveyspiiri: 32-23N, Pituuspiiri: 003-49E, korkeus merenpinnasta: 450 m

Tämänhetkinen sää

Tämä raportti tehtiin 10 minuuttia sitten, kello 11.00 UTC
Tuuli 2 kn pohjoisesta
Lämpötila 14°C
Kosteus 44%
Ilmanpaine 1023 hPa
Näkyvyys: 5000 m

METAR: DAUG 231100Z 35002KT 5000 NSC 14/02 Q1023

Aika: 12:10 (11:10 UTC)

Sääennuste

Tämä raportti tehtiin 6 tuntia ja 10 minuuttia sitten, kello 05.00 UTC
Ennuste voimassa 23. päivästä klo 06 UTC - 24. päivään klo 06 UTC
Tuuli 10 kn pohjoisen/luoteesta
Näkyvyys 10 km tai enemmän
ei pilviä alle 1500 m:ssä eikä cumulonimbus-pilviä
Tulossa
23. päivästä klo 10 UTC - 23. päivään klo 14 UTC
Tuuli 2 kn eri suunnista

TAF: DAUG 230500Z 2306/2406 34010KT CAVOK BECMG 2310/2314 VRB02KT

Säähavainnot ja -ennusteet yli 4000 lentoasemalta (METAR- ja TAF-raportit).

Käytössä olevat sääasemat on merkitty karttaan keltaisilla ja punaisilla pisteillä.

Aseta hiiri pisteen päälle nähdäksesi sääaseman nimen.

Klikkaa sitten nähdäksesi säähavainnot ja -ennusteet.

Kartan vaihtaminen: klikkaa mustalla rastilla varustettuja vihreitä pisteitä, niin voit zoomata sisään; viivalla varustettua vihreää pistettä, niin voit zoomata ulos tai vihreitä nuolia, niin pääset viereisille kartoille.


METAR-TAF: